Altus Air Force Base
KLTS : now visible

Airfield :











YOU CAN JOIN US ON...

 
LOGIN :

Register | Disclaimer

   EN    FR    IT 

 









Legend :    VFR   Marginal VFR   IFR   Intensive IFR   Very Intensive IFR
Visi :
Ceiling :
>= 8 km
>= 3000ft
5 to 8 km
1000 to 3000 ft
1500m to 5 km
500 to 1000 ft
800 to 1500m
200 to 500 ft
< 800m
< 200 ft
Symbols :   Thunderstorms  Fog  Heavy snow  Heavy precipitations  Wind > 20 kt






- Airport Elevation : 1382 ft


KLTS - Altus Air Force Base

CURRENT METAR :
  • 071456Z AUTO 18014G21KT 10SM FEW170 30/18 A2998 RMK AO2 SLP135 T02950183 52012 $

EXPIRED METARs :
  • 071356Z AUTO 17012KT 10SM OVC150 27/18 A2997 RMK AO2 SLP132 T02710175 $
  • 071256Z AUTO 17008KT 10SM SCT140 BKN200 24/17 A2995 RMK AO2 SLP125 T02370165 $

TAF TAF KLTS
Valid from the 07 at 09:00 until the 08 at 15:00 UTC


070900Z 0709/0815 16008KT 9999 SKC QNH2987INS
BECMG 0714/0715 20020G30KT 9999 BKN090 510003 QNH2993INS
BECMG 0717/0718 20015G25KT 9999 SCT100 510023 QNH2984INS
BECMG 0801/0802 16010KT 9999 SCT110 510042 QNH2986INS
BECMG 0814/0815 20020G30KT 9999 SCT110 510003 QNH2998INS TX38/0722Z TN22/0711Z
KZFW FIR / North America



MET'MAP, your aeronautical weather chart ! - Copyright ORBIFLY December 2007 - Disclaimer

ORBIFLY MET'MAP TEAM :

Programming & Development : Alexandra Zaïnal
Concept & original design : Baudouin d'Aumeries
Assistance for programming : Marc-Olivier Méhu
Technical & hardware support : Manuel Goepfert

Contact : metmap@orbifly.com




SOURCES & CREDITS :

   NOAA       Earth
Advisory